sensor_id;sensor_type;location;lat;lon;timestamp;temperature;humidity
12384;DHT22;6256;63.808;20.336;2023-03-16T00:02:05;-6.20;99.90
12384;DHT22;6256;63.808;20.336;2023-03-16T00:04:31;-6.20;99.90
12384;DHT22;6256;63.808;20.336;2023-03-16T00:07:02;-6.20;99.90
12384;DHT22;6256;63.808;20.336;2023-03-16T00:09:28;-6.20;99.90
12384;DHT22;6256;63.808;20.336;2023-03-16T00:12:00;-6.30;99.90
12384;DHT22;6256;63.808;20.336;2023-03-16T00:14:31;-6.30;99.90
12384;DHT22;6256;63.808;20.336;2023-03-16T00:16:57;-6.30;99.90
12384;DHT22;6256;63.808;20.336;2023-03-16T00:19:23;-6.40;99.90
12384;DHT22;6256;63.808;20.336;2023-03-16T00:21:49;-6.40;99.90
12384;DHT22;6256;63.808;20.336;2023-03-16T00:24:15;-6.40;99.90
12384;DHT22;6256;63.808;20.336;2023-03-16T00:26:45;-6.50;99.90
12384;DHT22;6256;63.808;20.336;2023-03-16T00:29:12;-6.50;99.90
12384;DHT22;6256;63.808;20.336;2023-03-16T00:31:41;-6.50;99.90
12384;DHT22;6256;63.808;20.336;2023-03-16T00:34:10;-6.60;99.90
12384;DHT22;6256;63.808;20.336;2023-03-16T00:36:36;-6.60;99.90
12384;DHT22;6256;63.808;20.336;2023-03-16T00:39:04;-6.70;99.90
12384;DHT22;6256;63.808;20.336;2023-03-16T00:41:30;-6.70;99.90
12384;DHT22;6256;63.808;20.336;2023-03-16T00:43:55;-6.70;99.90
12384;DHT22;6256;63.808;20.336;2023-03-16T00:46:21;-6.70;99.90
12384;DHT22;6256;63.808;20.336;2023-03-16T00:48:51;-6.80;99.90
12384;DHT22;6256;63.808;20.336;2023-03-16T00:51:18;-6.80;99.90
12384;DHT22;6256;63.808;20.336;2023-03-16T00:53:45;-6.80;99.90
12384;DHT22;6256;63.808;20.336;2023-03-16T00:56:11;-6.90;99.90
12384;DHT22;6256;63.808;20.336;2023-03-16T00:58:39;-6.80;99.90
12384;DHT22;6256;63.808;20.336;2023-03-16T01:01:16;-6.90;99.90
12384;DHT22;6256;63.808;20.336;2023-03-16T01:03:43;-6.90;99.90
12384;DHT22;6256;63.808;20.336;2023-03-16T01:06:13;-6.90;99.90
12384;DHT22;6256;63.808;20.336;2023-03-16T01:08:42;-6.90;99.90
12384;DHT22;6256;63.808;20.336;2023-03-16T01:11:10;-6.90;99.90
12384;DHT22;6256;63.808;20.336;2023-03-16T01:13:37;-7.00;99.90
12384;DHT22;6256;63.808;20.336;2023-03-16T01:16:03;-7.10;99.90
12384;DHT22;6256;63.808;20.336;2023-03-16T01:18:30;-7.20;99.90
12384;DHT22;6256;63.808;20.336;2023-03-16T01:21:02;-7.20;99.90
12384;DHT22;6256;63.808;20.336;2023-03-16T01:23:29;-7.20;99.90
12384;DHT22;6256;63.808;20.336;2023-03-16T01:25:55;-7.30;99.90
12384;DHT22;6256;63.808;20.336;2023-03-16T01:28:23;-7.40;99.90
12384;DHT22;6256;63.808;20.336;2023-03-16T01:30:53;-7.50;99.90
12384;DHT22;6256;63.808;20.336;2023-03-16T01:33:24;-7.60;99.90
12384;DHT22;6256;63.808;20.336;2023-03-16T01:35:55;-7.60;99.90
12384;DHT22;6256;63.808;20.336;2023-03-16T01:38:22;-7.70;99.90
12384;DHT22;6256;63.808;20.336;2023-03-16T01:40:49;-7.80;99.90
12384;DHT22;6256;63.808;20.336;2023-03-16T01:43:17;-7.90;99.90
12384;DHT22;6256;63.808;20.336;2023-03-16T01:48:40;-8.10;99.90
12384;DHT22;6256;63.808;20.336;2023-03-16T01:51:11;-8.10;99.90
12384;DHT22;6256;63.808;20.336;2023-03-16T01:53:40;-8.10;99.90
12384;DHT22;6256;63.808;20.336;2023-03-16T01:56:10;-8.10;99.90
12384;DHT22;6256;63.808;20.336;2023-03-16T01:58:38;-8.20;99.90
12384;DHT22;6256;63.808;20.336;2023-03-16T02:01:04;-8.20;99.90
12384;DHT22;6256;63.808;20.336;2023-03-16T02:03:30;-8.20;99.90
12384;DHT22;6256;63.808;20.336;2023-03-16T02:06:10;-8.20;99.90
12384;DHT22;6256;63.808;20.336;2023-03-16T02:08:38;-8.10;99.90
12384;DHT22;6256;63.808;20.336;2023-03-16T02:11:06;-8.20;99.90
12384;DHT22;6256;63.808;20.336;2023-03-16T02:13:33;-8.20;99.90
12384;DHT22;6256;63.808;20.336;2023-03-16T02:16:02;-8.20;99.90
12384;DHT22;6256;63.808;20.336;2023-03-16T02:18:29;-8.30;99.90
12384;DHT22;6256;63.808;20.336;2023-03-16T02:21:13;-8.40;99.90
12384;DHT22;6256;63.808;20.336;2023-03-16T02:23:42;-8.50;99.90
12384;DHT22;6256;63.808;20.336;2023-03-16T02:29:09;-8.60;99.90
12384;DHT22;6256;63.808;20.336;2023-03-16T02:31:36;-8.70;99.90
12384;DHT22;6256;63.808;20.336;2023-03-16T02:34:02;-8.60;99.90
12384;DHT22;6256;63.808;20.336;2023-03-16T02:36:29;-8.70;99.90
12384;DHT22;6256;63.808;20.336;2023-03-16T02:38:55;-8.70;99.90
12384;DHT22;6256;63.808;20.336;2023-03-16T02:41:21;-8.70;99.90
12384;DHT22;6256;63.808;20.336;2023-03-16T02:43:54;-8.80;99.90
12384;DHT22;6256;63.808;20.336;2023-03-16T02:46:22;-8.90;99.90
12384;DHT22;6256;63.808;20.336;2023-03-16T02:51:36;-9.00;99.90
12384;DHT22;6256;63.808;20.336;2023-03-16T02:54:02;-9.00;99.90
12384;DHT22;6256;63.808;20.336;2023-03-16T02:56:28;-9.00;99.90
12384;DHT22;6256;63.808;20.336;2023-03-16T02:58:54;-9.10;99.90
12384;DHT22;6256;63.808;20.336;2023-03-16T03:01:22;-9.10;99.90
12384;DHT22;6256;63.808;20.336;2023-03-16T03:03:48;-9.20;99.90
12384;DHT22;6256;63.808;20.336;2023-03-16T03:06:13;-9.30;99.90
12384;DHT22;6256;63.808;20.336;2023-03-16T03:08:40;-9.20;99.90
12384;DHT22;6256;63.808;20.336;2023-03-16T03:11:05;-9.30;99.90
12384;DHT22;6256;63.808;20.336;2023-03-16T03:13:31;-9.30;99.90
12384;DHT22;6256;63.808;20.336;2023-03-16T03:15:57;-9.30;99.90
12384;DHT22;6256;63.808;20.336;2023-03-16T03:18:22;-9.30;99.90
12384;DHT22;6256;63.808;20.336;2023-03-16T03:20:49;-9.30;99.90
12384;DHT22;6256;63.808;20.336;2023-03-16T03:23:15;-9.30;99.90
12384;DHT22;6256;63.808;20.336;2023-03-16T03:25:41;-9.30;99.90
12384;DHT22;6256;63.808;20.336;2023-03-16T03:28:07;-9.20;99.90
12384;DHT22;6256;63.808;20.336;2023-03-16T03:30:33;-9.30;99.90
12384;DHT22;6256;63.808;20.336;2023-03-16T03:32:59;-9.20;99.90
12384;DHT22;6256;63.808;20.336;2023-03-16T03:35:26;-9.20;99.90
12384;DHT22;6256;63.808;20.336;2023-03-16T03:37:52;-9.20;99.90
12384;DHT22;6256;63.808;20.336;2023-03-16T03:40:19;-9.30;99.90
12384;DHT22;6256;63.808;20.336;2023-03-16T03:42:45;-9.30;99.90
12384;DHT22;6256;63.808;20.336;2023-03-16T03:45:11;-9.40;99.90
12384;DHT22;6256;63.808;20.336;2023-03-16T03:47:38;-9.50;99.90
12384;DHT22;6256;63.808;20.336;2023-03-16T03:50:04;-9.50;99.90
12384;DHT22;6256;63.808;20.336;2023-03-16T03:52:30;-9.50;99.90
12384;DHT22;6256;63.808;20.336;2023-03-16T03:54:55;-9.60;99.90
12384;DHT22;6256;63.808;20.336;2023-03-16T03:57:21;-9.60;99.90
12384;DHT22;6256;63.808;20.336;2023-03-16T03:59:47;-9.60;99.90
12384;DHT22;6256;63.808;20.336;2023-03-16T04:02:13;-9.70;99.90
12384;DHT22;6256;63.808;20.336;2023-03-16T04:04:39;-9.80;99.90
12384;DHT22;6256;63.808;20.336;2023-03-16T04:07:05;-9.80;99.90
12384;DHT22;6256;63.808;20.336;2023-03-16T04:09:31;-9.80;99.90
12384;DHT22;6256;63.808;20.336;2023-03-16T04:12:02;-9.90;99.90
12384;DHT22;6256;63.808;20.336;2023-03-16T04:14:28;-9.90;99.90
12384;DHT22;6256;63.808;20.336;2023-03-16T04:16:55;-9.90;99.90
12384;DHT22;6256;63.808;20.336;2023-03-16T04:19:22;-10.00;99.90
12384;DHT22;6256;63.808;20.336;2023-03-16T04:21:48;-10.00;99.90
12384;DHT22;6256;63.808;20.336;2023-03-16T04:24:14;-9.90;99.90
12384;DHT22;6256;63.808;20.336;2023-03-16T04:26:41;-9.90;99.90
12384;DHT22;6256;63.808;20.336;2023-03-16T04:29:10;-9.80;99.90
12384;DHT22;6256;63.808;20.336;2023-03-16T04:31:35;-10.00;99.90
12384;DHT22;6256;63.808;20.336;2023-03-16T04:34:01;-10.00;99.90
12384;DHT22;6256;63.808;20.336;2023-03-16T04:36:27;-10.10;99.90
12384;DHT22;6256;63.808;20.336;2023-03-16T04:38:52;-10.20;99.90
12384;DHT22;6256;63.808;20.336;2023-03-16T04:41:18;-10.20;99.90
12384;DHT22;6256;63.808;20.336;2023-03-16T04:43:44;-10.30;99.90
12384;DHT22;6256;63.808;20.336;2023-03-16T04:46:10;-10.30;99.90
12384;DHT22;6256;63.808;20.336;2023-03-16T04:48:36;-10.20;99.90
12384;DHT22;6256;63.808;20.336;2023-03-16T04:51:03;-10.30;99.90
12384;DHT22;6256;63.808;20.336;2023-03-16T04:53:31;-10.20;99.90
12384;DHT22;6256;63.808;20.336;2023-03-16T04:55:58;-10.30;99.90
12384;DHT22;6256;63.808;20.336;2023-03-16T04:58:24;-10.30;99.90
12384;DHT22;6256;63.808;20.336;2023-03-16T05:00:53;-10.20;99.90
12384;DHT22;6256;63.808;20.336;2023-03-16T05:03:22;-10.10;99.90
12384;DHT22;6256;63.808;20.336;2023-03-16T05:05:48;-10.00;99.90
12384;DHT22;6256;63.808;20.336;2023-03-16T05:08:14;-10.00;99.90
12384;DHT22;6256;63.808;20.336;2023-03-16T05:10:40;-10.10;99.90
12384;DHT22;6256;63.808;20.336;2023-03-16T05:13:06;-10.00;99.90
12384;DHT22;6256;63.808;20.336;2023-03-16T05:15:32;-10.00;99.90
12384;DHT22;6256;63.808;20.336;2023-03-16T05:17:58;-10.10;99.90
12384;DHT22;6256;63.808;20.336;2023-03-16T05:20:24;-10.10;99.90
12384;DHT22;6256;63.808;20.336;2023-03-16T05:22:50;-10.10;99.90
12384;DHT22;6256;63.808;20.336;2023-03-16T05:25:18;-10.00;99.90
12384;DHT22;6256;63.808;20.336;2023-03-16T05:27:46;-9.90;99.90
12384;DHT22;6256;63.808;20.336;2023-03-16T05:30:13;-10.00;99.90
12384;DHT22;6256;63.808;20.336;2023-03-16T05:32:41;-10.00;99.90
12384;DHT22;6256;63.808;20.336;2023-03-16T05:35:07;-10.00;99.90
12384;DHT22;6256;63.808;20.336;2023-03-16T05:37:33;-10.00;99.90
12384;DHT22;6256;63.808;20.336;2023-03-16T05:40:04;-10.00;99.90
12384;DHT22;6256;63.808;20.336;2023-03-16T05:42:36;-9.90;99.90
12384;DHT22;6256;63.808;20.336;2023-03-16T05:45:02;-9.90;99.90
12384;DHT22;6256;63.808;20.336;2023-03-16T05:47:29;-9.70;99.90
12384;DHT22;6256;63.808;20.336;2023-03-16T05:49:54;-9.60;99.90
12384;DHT22;6256;63.808;20.336;2023-03-16T05:52:20;-9.60;99.90
12384;DHT22;6256;63.808;20.336;2023-03-16T05:54:46;-9.40;99.90
12384;DHT22;6256;63.808;20.336;2023-03-16T05:57:11;-9.20;99.90
12384;DHT22;6256;63.808;20.336;2023-03-16T05:59:37;-9.10;99.90
12384;DHT22;6256;63.808;20.336;2023-03-16T06:02:03;-9.00;99.90
12384;DHT22;6256;63.808;20.336;2023-03-16T06:04:29;-8.80;99.90
12384;DHT22;6256;63.808;20.336;2023-03-16T06:06:54;-8.70;99.90
12384;DHT22;6256;63.808;20.336;2023-03-16T06:09:20;-8.60;99.90
12384;DHT22;6256;63.808;20.336;2023-03-16T06:11:46;-8.50;99.90
12384;DHT22;6256;63.808;20.336;2023-03-16T06:14:11;-8.40;99.90
12384;DHT22;6256;63.808;20.336;2023-03-16T06:16:37;-8.30;99.90
12384;DHT22;6256;63.808;20.336;2023-03-16T06:19:03;-8.20;99.90
12384;DHT22;6256;63.808;20.336;2023-03-16T06:21:28;-8.10;99.90
12384;DHT22;6256;63.808;20.336;2023-03-16T06:23:54;-8.10;99.90
12384;DHT22;6256;63.808;20.336;2023-03-16T06:26:20;-8.00;99.90
12384;DHT22;6256;63.808;20.336;2023-03-16T06:28:47;-7.90;99.90
12384;DHT22;6256;63.808;20.336;2023-03-16T06:31:13;-7.80;99.90
12384;DHT22;6256;63.808;20.336;2023-03-16T06:33:38;-7.70;99.90
12384;DHT22;6256;63.808;20.336;2023-03-16T06:36:04;-7.70;99.90
12384;DHT22;6256;63.808;20.336;2023-03-16T06:38:30;-7.60;99.90
12384;DHT22;6256;63.808;20.336;2023-03-16T06:40:59;-7.50;99.90
12384;DHT22;6256;63.808;20.336;2023-03-16T06:43:25;-7.30;99.90
12384;DHT22;6256;63.808;20.336;2023-03-16T06:45:50;-7.20;99.90
12384;DHT22;6256;63.808;20.336;2023-03-16T06:48:16;-7.10;99.90
12384;DHT22;6256;63.808;20.336;2023-03-16T06:50:44;-7.10;99.90
12384;DHT22;6256;63.808;20.336;2023-03-16T06:53:10;-7.00;99.90
12384;DHT22;6256;63.808;20.336;2023-03-16T06:55:35;-7.00;99.90
12384;DHT22;6256;63.808;20.336;2023-03-16T06:58:01;-6.90;99.90
12384;DHT22;6256;63.808;20.336;2023-03-16T07:00:27;-6.80;99.90
12384;DHT22;6256;63.808;20.336;2023-03-16T07:02:53;-6.80;99.90
12384;DHT22;6256;63.808;20.336;2023-03-16T07:05:18;-6.70;99.90
12384;DHT22;6256;63.808;20.336;2023-03-16T07:07:45;-6.60;99.90
12384;DHT22;6256;63.808;20.336;2023-03-16T07:10:12;-6.60;99.90
12384;DHT22;6256;63.808;20.336;2023-03-16T07:12:38;-6.60;99.90
12384;DHT22;6256;63.808;20.336;2023-03-16T07:15:05;-6.50;99.90
12384;DHT22;6256;63.808;20.336;2023-03-16T07:17:30;-6.50;99.90
12384;DHT22;6256;63.808;20.336;2023-03-16T07:19:56;-6.40;99.90
12384;DHT22;6256;63.808;20.336;2023-03-16T07:22:22;-6.40;99.90
12384;DHT22;6256;63.808;20.336;2023-03-16T07:24:48;-6.30;99.90
12384;DHT22;6256;63.808;20.336;2023-03-16T07:27:20;-6.20;99.90
12384;DHT22;6256;63.808;20.336;2023-03-16T07:29:48;-6.20;99.90
12384;DHT22;6256;63.808;20.336;2023-03-16T07:32:14;-6.10;99.90
12384;DHT22;6256;63.808;20.336;2023-03-16T07:34:40;-6.00;99.90
12384;DHT22;6256;63.808;20.336;2023-03-16T07:37:07;-5.90;99.90
12384;DHT22;6256;63.808;20.336;2023-03-16T07:39:34;-5.90;99.90
12384;DHT22;6256;63.808;20.336;2023-03-16T07:42:00;-5.80;99.90
12384;DHT22;6256;63.808;20.336;2023-03-16T07:44:26;-5.70;99.90
12384;DHT22;6256;63.808;20.336;2023-03-16T07:46:52;-5.70;99.90
12384;DHT22;6256;63.808;20.336;2023-03-16T07:49:17;-5.60;99.90
12384;DHT22;6256;63.808;20.336;2023-03-16T07:51:43;-5.50;99.90
12384;DHT22;6256;63.808;20.336;2023-03-16T07:54:09;-5.40;99.90
12384;DHT22;6256;63.808;20.336;2023-03-16T07:56:35;-5.30;99.90
12384;DHT22;6256;63.808;20.336;2023-03-16T07:59:01;-5.30;99.90
12384;DHT22;6256;63.808;20.336;2023-03-16T08:01:27;-5.20;99.90
12384;DHT22;6256;63.808;20.336;2023-03-16T08:03:53;-5.10;99.90
12384;DHT22;6256;63.808;20.336;2023-03-16T08:06:19;-5.00;99.90
12384;DHT22;6256;63.808;20.336;2023-03-16T08:08:46;-4.90;99.90
12384;DHT22;6256;63.808;20.336;2023-03-16T08:11:12;-4.80;99.90
12384;DHT22;6256;63.808;20.336;2023-03-16T08:13:38;-4.80;99.90
12384;DHT22;6256;63.808;20.336;2023-03-16T08:16:08;-4.70;99.90
12384;DHT22;6256;63.808;20.336;2023-03-16T08:18:35;-4.60;99.90
12384;DHT22;6256;63.808;20.336;2023-03-16T08:21:01;-4.60;99.90
12384;DHT22;6256;63.808;20.336;2023-03-16T08:23:27;-4.50;99.90
12384;DHT22;6256;63.808;20.336;2023-03-16T08:25:55;-4.40;99.90
12384;DHT22;6256;63.808;20.336;2023-03-16T08:28:21;-4.40;99.90
12384;DHT22;6256;63.808;20.336;2023-03-16T08:30:49;-4.30;99.90
12384;DHT22;6256;63.808;20.336;2023-03-16T08:33:15;-4.30;99.90
12384;DHT22;6256;63.808;20.336;2023-03-16T08:35:46;-4.20;99.90
12384;DHT22;6256;63.808;20.336;2023-03-16T08:38:12;-4.10;99.90
12384;DHT22;6256;63.808;20.336;2023-03-16T08:40:39;-4.00;99.90
12384;DHT22;6256;63.808;20.336;2023-03-16T08:43:15;-3.90;99.90
12384;DHT22;6256;63.808;20.336;2023-03-16T08:45:44;-3.80;99.90
12384;DHT22;6256;63.808;20.336;2023-03-16T08:48:10;-3.70;99.90
12384;DHT22;6256;63.808;20.336;2023-03-16T08:50:39;-3.60;99.90
12384;DHT22;6256;63.808;20.336;2023-03-16T08:53:06;-3.50;99.90
12384;DHT22;6256;63.808;20.336;2023-03-16T08:55:31;-3.40;99.90
12384;DHT22;6256;63.808;20.336;2023-03-16T08:57:58;-3.30;99.90
12384;DHT22;6256;63.808;20.336;2023-03-16T09:00:24;-3.20;99.90
12384;DHT22;6256;63.808;20.336;2023-03-16T09:02:50;-3.20;99.90
12384;DHT22;6256;63.808;20.336;2023-03-16T09:05:15;-3.10;99.90
12384;DHT22;6256;63.808;20.336;2023-03-16T09:07:42;-3.00;99.90
12384;DHT22;6256;63.808;20.336;2023-03-16T09:10:09;-2.90;99.90
12384;DHT22;6256;63.808;20.336;2023-03-16T09:12:38;-2.80;99.90
12384;DHT22;6256;63.808;20.336;2023-03-16T09:15:05;-2.80;99.90
12384;DHT22;6256;63.808;20.336;2023-03-16T09:17:31;-2.70;99.90
12384;DHT22;6256;63.808;20.336;2023-03-16T09:19:57;-2.60;99.90
12384;DHT22;6256;63.808;20.336;2023-03-16T09:22:23;-2.60;99.40
12384;DHT22;6256;63.808;20.336;2023-03-16T09:24:49;-2.60;99.00
12384;DHT22;6256;63.808;20.336;2023-03-16T09:27:16;-2.50;99.80
12384;DHT22;6256;63.808;20.336;2023-03-16T09:29:42;-2.30;99.60
12384;DHT22;6256;63.808;20.336;2023-03-16T09:32:09;-2.20;99.30
12384;DHT22;6256;63.808;20.336;2023-03-16T09:34:35;-2.10;99.90
12384;DHT22;6256;63.808;20.336;2023-03-16T09:37:01;-2.10;98.30
12384;DHT22;6256;63.808;20.336;2023-03-16T09:39:27;-2.00;98.50
12384;DHT22;6256;63.808;20.336;2023-03-16T09:41:54;-1.90;98.60
12384;DHT22;6256;63.808;20.336;2023-03-16T09:47:28;-1.60;98.10
12384;DHT22;6256;63.808;20.336;2023-03-16T09:50:00;-1.50;98.40
12384;DHT22;6256;63.808;20.336;2023-03-16T09:52:45;-1.40;98.30
12384;DHT22;6256;63.808;20.336;2023-03-16T09:55:30;-1.30;97.20
12384;DHT22;6256;63.808;20.336;2023-03-16T09:57:58;-1.20;96.90
12384;DHT22;6256;63.808;20.336;2023-03-16T10:00:33;-1.20;96.70
12384;DHT22;6256;63.808;20.336;2023-03-16T10:05:38;-1.00;96.80
12384;DHT22;6256;63.808;20.336;2023-03-16T10:16:56;0.10;96.70
12384;DHT22;6256;63.808;20.336;2023-03-16T10:19:42;0.30;95.10
12384;DHT22;6256;63.808;20.336;2023-03-16T10:24:56;0.60;95.60
12384;DHT22;6256;63.808;20.336;2023-03-16T10:27:35;0.60;95.10
12384;DHT22;6256;63.808;20.336;2023-03-16T10:30:06;0.90;94.70
12384;DHT22;6256;63.808;20.336;2023-03-16T10:32:33;1.40;95.60
12384;DHT22;6256;63.808;20.336;2023-03-16T10:38:01;1.80;93.90
12384;DHT22;6256;63.808;20.336;2023-03-16T10:40:31;1.80;92.90
12384;DHT22;6256;63.808;20.336;2023-03-16T10:43:13;2.00;91.50
12384;DHT22;6256;63.808;20.336;2023-03-16T10:45:41;2.00;90.80
12384;DHT22;6256;63.808;20.336;2023-03-16T10:48:16;2.00;91.00
12384;DHT22;6256;63.808;20.336;2023-03-16T10:50:51;2.10;91.70
12384;DHT22;6256;63.808;20.336;2023-03-16T10:53:29;2.40;91.30
12384;DHT22;6256;63.808;20.336;2023-03-16T10:55:58;3.10;92.10
12384;DHT22;6256;63.808;20.336;2023-03-16T10:58:32;3.60;91.00
12384;DHT22;6256;63.808;20.336;2023-03-16T11:01:00;3.40;86.90
12384;DHT22;6256;63.808;20.336;2023-03-16T11:03:30;3.10;86.90
12384;DHT22;6256;63.808;20.336;2023-03-16T11:06:05;3.00;87.30
12384;DHT22;6256;63.808;20.336;2023-03-16T11:08:34;3.40;88.40
12384;DHT22;6256;63.808;20.336;2023-03-16T11:11:06;3.60;87.90
12384;DHT22;6256;63.808;20.336;2023-03-16T11:13:35;4.00;89.60
12384;DHT22;6256;63.808;20.336;2023-03-16T11:18:51;4.30;84.30
12384;DHT22;6256;63.808;20.336;2023-03-16T11:21:29;3.90;82.20
12384;DHT22;6256;63.808;20.336;2023-03-16T11:24:00;3.70;83.10
12384;DHT22;6256;63.808;20.336;2023-03-16T11:26:36;3.50;85.00
12384;DHT22;6256;63.808;20.336;2023-03-16T11:31:53;3.60;84.10
12384;DHT22;6256;63.808;20.336;2023-03-16T11:34:29;3.90;86.60
12384;DHT22;6256;63.808;20.336;2023-03-16T11:39:30;3.50;85.00
12384;DHT22;6256;63.808;20.336;2023-03-16T11:47:55;3.10;84.70
12384;DHT22;6256;63.808;20.336;2023-03-16T11:50:56;2.90;81.60
12384;DHT22;6256;63.808;20.336;2023-03-16T11:57:32;2.60;84.30
12384;DHT22;6256;63.808;20.336;2023-03-16T12:07:38;2.10;84.90
12384;DHT22;6256;63.808;20.336;2023-03-16T12:15:31;1.90;89.20
12384;DHT22;6256;63.808;20.336;2023-03-16T12:18:14;2.00;88.40
12384;DHT22;6256;63.808;20.336;2023-03-16T12:20:54;2.10;90.00
12384;DHT22;6256;63.808;20.336;2023-03-16T12:23:53;1.70;85.30
12384;DHT22;6256;63.808;20.336;2023-03-16T12:26:23;1.60;87.30
12384;DHT22;6256;63.808;20.336;2023-03-16T12:28:50;1.50;86.50
12384;DHT22;6256;63.808;20.336;2023-03-16T12:31:26;1.60;88.50
12384;DHT22;6256;63.808;20.336;2023-03-16T12:34:07;1.50;87.40
12384;DHT22;6256;63.808;20.336;2023-03-16T12:45:06;1.80;88.80
12384;DHT22;6256;63.808;20.336;2023-03-16T12:50:09;1.60;88.00
12384;DHT22;6256;63.808;20.336;2023-03-16T12:52:41;1.50;86.20
12384;DHT22;6256;63.808;20.336;2023-03-16T12:58:07;1.60;88.60
12384;DHT22;6256;63.808;20.336;2023-03-16T13:00:35;1.70;88.10
12384;DHT22;6256;63.808;20.336;2023-03-16T13:03:02;1.80;90.10
12384;DHT22;6256;63.808;20.336;2023-03-16T13:05:33;1.80;89.00
12384;DHT22;6256;63.808;20.336;2023-03-16T13:08:16;1.70;87.20
12384;DHT22;6256;63.808;20.336;2023-03-16T13:11:08;1.40;85.10
12384;DHT22;6256;63.808;20.336;2023-03-16T13:13:35;1.20;86.90
12384;DHT22;6256;63.808;20.336;2023-03-16T13:16:24;1.10;87.10
12384;DHT22;6256;63.808;20.336;2023-03-16T13:18:50;1.30;88.60
12384;DHT22;6256;63.808;20.336;2023-03-16T13:21:21;1.20;87.60
12384;DHT22;6256;63.808;20.336;2023-03-16T13:24:24;1.30;89.00
12384;DHT22;6256;63.808;20.336;2023-03-16T13:26:48;1.50;87.10
12384;DHT22;6256;63.808;20.336;2023-03-16T13:29:28;1.50;87.50
12384;DHT22;6256;63.808;20.336;2023-03-16T13:31:56;1.60;88.50
12384;DHT22;6256;63.808;20.336;2023-03-16T13:34:36;1.70;86.90
12384;DHT22;6256;63.808;20.336;2023-03-16T13:37:03;1.90;87.50
12384;DHT22;6256;63.808;20.336;2023-03-16T13:39:30;2.00;87.00
12384;DHT22;6256;63.808;20.336;2023-03-16T13:44:33;2.00;85.60
12384;DHT22;6256;63.808;20.336;2023-03-16T13:47:04;2.00;85.30
12384;DHT22;6256;63.808;20.336;2023-03-16T13:49:30;1.90;85.10
12384;DHT22;6256;63.808;20.336;2023-03-16T13:51:56;1.70;84.20
12384;DHT22;6256;63.808;20.336;2023-03-16T13:54:27;1.80;85.80
12384;DHT22;6256;63.808;20.336;2023-03-16T13:56:59;1.80;86.50
12384;DHT22;6256;63.808;20.336;2023-03-16T13:59:26;2.00;87.90
12384;DHT22;6256;63.808;20.336;2023-03-16T14:01:56;2.00;86.40
12384;DHT22;6256;63.808;20.336;2023-03-16T14:04:25;2.00;86.20
12384;DHT22;6256;63.808;20.336;2023-03-16T14:06:59;1.90;85.80
12384;DHT22;6256;63.808;20.336;2023-03-16T14:09:32;1.90;86.70
12384;DHT22;6256;63.808;20.336;2023-03-16T14:11:59;1.80;85.20
12384;DHT22;6256;63.808;20.336;2023-03-16T14:14:30;1.60;86.10
12384;DHT22;6256;63.808;20.336;2023-03-16T14:17:07;1.60;85.90
12384;DHT22;6256;63.808;20.336;2023-03-16T14:19:40;1.40;85.70
12384;DHT22;6256;63.808;20.336;2023-03-16T14:22:22;1.50;90.00
12384;DHT22;6256;63.808;20.336;2023-03-16T14:24:55;1.40;88.60
12384;DHT22;6256;63.808;20.336;2023-03-16T14:30:25;1.40;87.50
12384;DHT22;6256;63.808;20.336;2023-03-16T14:32:59;1.30;87.30
12384;DHT22;6256;63.808;20.336;2023-03-16T14:35:41;1.30;89.40
12384;DHT22;6256;63.808;20.336;2023-03-16T14:38:41;1.30;88.60
12384;DHT22;6256;63.808;20.336;2023-03-16T14:41:24;1.10;88.00
12384;DHT22;6256;63.808;20.336;2023-03-16T14:43:58;1.10;89.60
12384;DHT22;6256;63.808;20.336;2023-03-16T14:46:32;1.10;90.00
12384;DHT22;6256;63.808;20.336;2023-03-16T14:49:05;1.00;87.90
12384;DHT22;6256;63.808;20.336;2023-03-16T14:51:31;1.00;90.00
12384;DHT22;6256;63.808;20.336;2023-03-16T14:53:58;1.00;87.90
12384;DHT22;6256;63.808;20.336;2023-03-16T14:56:31;1.00;87.30
12384;DHT22;6256;63.808;20.336;2023-03-16T14:58:58;1.00;87.90
12384;DHT22;6256;63.808;20.336;2023-03-16T15:01:25;0.90;88.30
12384;DHT22;6256;63.808;20.336;2023-03-16T15:03:51;0.80;89.00
12384;DHT22;6256;63.808;20.336;2023-03-16T15:06:17;0.80;89.60
12384;DHT22;6256;63.808;20.336;2023-03-16T15:08:44;0.70;89.70
12384;DHT22;6256;63.808;20.336;2023-03-16T15:11:11;0.60;89.30
12384;DHT22;6256;63.808;20.336;2023-03-16T15:13:37;0.60;89.90
12384;DHT22;6256;63.808;20.336;2023-03-16T15:16:09;0.50;90.20
12384;DHT22;6256;63.808;20.336;2023-03-16T15:18:36;0.50;89.30
12384;DHT22;6256;63.808;20.336;2023-03-16T15:21:10;0.50;89.30
12384;DHT22;6256;63.808;20.336;2023-03-16T15:23:38;0.50;90.20
12384;DHT22;6256;63.808;20.336;2023-03-16T15:26:03;0.50;89.50
12384;DHT22;6256;63.808;20.336;2023-03-16T15:28:32;0.50;90.40
12384;DHT22;6256;63.808;20.336;2023-03-16T15:31:00;0.40;90.00
12384;DHT22;6256;63.808;20.336;2023-03-16T15:33:27;0.30;90.80
12384;DHT22;6256;63.808;20.336;2023-03-16T15:35:54;0.30;90.50
12384;DHT22;6256;63.808;20.336;2023-03-16T15:38:33;0.30;90.90
12384;DHT22;6256;63.808;20.336;2023-03-16T15:41:01;0.20;91.00
12384;DHT22;6256;63.808;20.336;2023-03-16T15:43:28;0.10;90.80
12384;DHT22;6256;63.808;20.336;2023-03-16T15:45:56;0.10;90.80
12384;DHT22;6256;63.808;20.336;2023-03-16T15:48:23;0.00;90.80
12384;DHT22;6256;63.808;20.336;2023-03-16T15:50:56;0.00;90.80
12384;DHT22;6256;63.808;20.336;2023-03-16T15:53:28;-0.10;91.20
12384;DHT22;6256;63.808;20.336;2023-03-16T15:56:02;-0.10;91.20
12384;DHT22;6256;63.808;20.336;2023-03-16T15:58:30;-0.20;91.00
12384;DHT22;6256;63.808;20.336;2023-03-16T16:00:58;-0.30;91.00
12384;DHT22;6256;63.808;20.336;2023-03-16T16:03:25;-0.40;91.10
12384;DHT22;6256;63.808;20.336;2023-03-16T16:05:52;-0.40;91.30
12384;DHT22;6256;63.808;20.336;2023-03-16T16:08:18;-0.50;92.00
12384;DHT22;6256;63.808;20.336;2023-03-16T16:10:45;-0.60;92.40
12384;DHT22;6256;63.808;20.336;2023-03-16T16:13:26;-0.80;92.90
12384;DHT22;6256;63.808;20.336;2023-03-16T16:15:54;-0.90;93.50
12384;DHT22;6256;63.808;20.336;2023-03-16T16:18:28;-0.90;94.30
12384;DHT22;6256;63.808;20.336;2023-03-16T16:20:57;-1.00;93.30
12384;DHT22;6256;63.808;20.336;2023-03-16T16:23:24;-1.20;93.90
12384;DHT22;6256;63.808;20.336;2023-03-16T16:25:53;-1.20;93.50
12384;DHT22;6256;63.808;20.336;2023-03-16T16:28:21;-1.30;94.00
12384;DHT22;6256;63.808;20.336;2023-03-16T16:30:48;-1.40;94.10
12384;DHT22;6256;63.808;20.336;2023-03-16T16:33:32;-1.50;94.60
12384;DHT22;6256;63.808;20.336;2023-03-16T16:36:00;-1.60;95.00
12384;DHT22;6256;63.808;20.336;2023-03-16T16:38:27;-1.70;95.60
12384;DHT22;6256;63.808;20.336;2023-03-16T16:40:54;-1.80;95.80
12384;DHT22;6256;63.808;20.336;2023-03-16T16:43:29;-1.90;96.10
12384;DHT22;6256;63.808;20.336;2023-03-16T16:45:57;-2.00;96.40
12384;DHT22;6256;63.808;20.336;2023-03-16T16:48:35;-2.10;96.50
12384;DHT22;6256;63.808;20.336;2023-03-16T16:51:04;-2.20;96.40
12384;DHT22;6256;63.808;20.336;2023-03-16T16:53:31;-2.30;97.10
12384;DHT22;6256;63.808;20.336;2023-03-16T16:55:58;-2.40;97.30
12384;DHT22;6256;63.808;20.336;2023-03-16T16:58:24;-2.50;97.70
12384;DHT22;6256;63.808;20.336;2023-03-16T17:00:53;-2.60;97.90
12384;DHT22;6256;63.808;20.336;2023-03-16T17:05:47;-2.80;98.30
12384;DHT22;6256;63.808;20.336;2023-03-16T17:08:13;-2.80;98.60